createdAt,value
2023-04-09T00:01:49.405Z,54.60
2023-04-09T00:04:17.697Z,68.20
2023-04-09T00:06:46.130Z,68.40
2023-04-09T00:09:14.161Z,66.00
2023-04-09T00:11:42.192Z,68.20
2023-04-09T00:14:11.631Z,62.80
2023-04-09T00:16:40.834Z,61.40
2023-04-09T00:19:09.058Z,71.20
2023-04-09T00:21:37.187Z,49.00
2023-04-09T00:24:05.444Z,59.40
2023-04-09T00:26:33.524Z,51.20
2023-04-09T00:29:01.855Z,56.40
2023-04-09T00:31:45.087Z,62.80
2023-04-09T00:34:14.635Z,59.60
2023-04-09T00:36:42.746Z,60.40
2023-04-09T00:39:11.213Z,58.00
2023-04-09T00:41:39.255Z,53.80
2023-04-09T00:44:07.302Z,59.20
2023-04-09T00:46:35.552Z,59.60
2023-04-09T00:49:03.648Z,56.80
2023-04-09T00:51:33.244Z,55.20
2023-04-09T00:54:01.324Z,56.40
2023-04-09T00:56:29.959Z,54.20
2023-04-09T00:58:58.065Z,63.60
2023-04-09T01:01:26.339Z,55.40
2023-04-09T01:03:54.606Z,60.40
2023-04-09T01:06:28.538Z,52.60
2023-04-09T01:09:03.882Z,63.00
2023-04-09T01:11:35.323Z,56.20
2023-04-09T01:14:06.934Z,60.60
2023-04-09T01:16:38.270Z,57.60
2023-04-09T01:19:11.372Z,61.40
2023-04-09T01:21:40.478Z,50.20
2023-04-09T01:24:22.687Z,54.80
2023-04-09T01:26:57.335Z,57.80
2023-04-09T01:29:32.804Z,54.20
2023-04-09T01:32:01.952Z,53.20
2023-04-09T01:34:30.538Z,54.20
2023-04-09T01:37:00.272Z,67.20
2023-04-09T01:39:28.375Z,50.00
2023-04-09T01:41:58.045Z,58.80
2023-04-09T01:44:26.390Z,56.60
2023-04-09T01:46:56.687Z,55.20
2023-04-09T01:49:24.957Z,61.60
2023-04-09T01:51:53.221Z,49.80
2023-04-09T01:54:21.344Z,46.60
2023-04-09T01:56:49.731Z,58.40
2023-04-09T01:59:18.096Z,45.60
2023-04-09T02:01:47.446Z,50.60
2023-04-09T02:04:24.216Z,57.00
2023-04-09T02:06:55.487Z,48.20
2023-04-09T02:09:25.614Z,55.80
2023-04-09T02:11:54.749Z,53.20
2023-04-09T02:14:23.780Z,55.60
2023-04-09T02:16:51.936Z,49.00
2023-04-09T02:19:21.626Z,52.60
2023-04-09T02:21:49.972Z,55.80
2023-04-09T02:24:18.114Z,54.00
2023-04-09T02:26:46.193Z,52.40
2023-04-09T02:29:14.269Z,59.80
2023-04-09T02:31:42.293Z,52.60
2023-04-09T02:34:10.426Z,60.80
2023-04-09T02:36:39.907Z,51.20
2023-04-09T02:39:07.931Z,54.00
2023-04-09T02:41:38.605Z,56.00
2023-04-09T02:44:06.945Z,52.80
2023-04-09T02:46:35.084Z,44.60
2023-04-09T02:49:03.916Z,65.60
2023-04-09T02:51:32.196Z,45.40
2023-04-09T02:54:01.749Z,43.40
2023-04-09T02:56:29.891Z,54.80
2023-04-09T02:58:58.162Z,53.60
2023-04-09T03:01:26.330Z,52.20
2023-04-09T03:03:54.860Z,50.00
2023-04-09T03:06:23.255Z,60.40
2023-04-09T03:08:51.480Z,58.40
2023-04-09T03:11:21.167Z,59.00
2023-04-09T03:13:49.245Z,58.20
2023-04-09T03:16:17.639Z,61.60
2023-04-09T03:18:45.877Z,58.20
2023-04-09T03:21:15.056Z,50.20
2023-04-09T03:23:48.488Z,58.20
2023-04-09T03:26:16.826Z,51.40
2023-04-09T03:28:50.829Z,55.20
2023-04-09T03:31:19.250Z,50.20
2023-04-09T03:33:48.144Z,59.80
2023-04-09T03:36:16.880Z,53.60
2023-04-09T03:39:08.198Z,52.80
2023-04-09T03:41:39.463Z,59.00
2023-04-09T03:44:13.429Z,51.80
2023-04-09T03:46:59.359Z,48.60
2023-04-09T03:49:28.787Z,47.80
2023-04-09T03:52:02.100Z,54.80
2023-04-09T03:54:37.863Z,45.40
2023-04-09T03:57:11.798Z,55.40
2023-04-09T03:59:43.891Z,49.00
2023-04-09T04:02:13.014Z,57.20
2023-04-09T04:04:47.229Z,55.00
2023-04-09T04:07:16.046Z,48.20
2023-04-09T04:09:49.769Z,54.20
2023-04-09T04:12:20.167Z,48.80
2023-04-09T04:15:03.617Z,44.75
2023-04-09T04:17:37.267Z,48.00
2023-04-09T04:20:11.902Z,47.20
2023-04-09T04:22:52.019Z,40.60
2023-04-09T04:25:20.204Z,45.00
2023-04-09T04:27:49.177Z,45.20
2023-04-09T04:30:21.940Z,53.20
2023-04-09T04:33:01.291Z,41.00
2023-04-09T04:35:35.650Z,41.75
2023-04-09T04:38:06.424Z,45.80
2023-04-09T04:40:43.502Z,45.20
2023-04-09T04:43:16.370Z,43.40
2023-04-09T04:45:46.710Z,46.80
2023-04-09T04:48:15.291Z,45.00
2023-04-09T04:50:43.658Z,41.80
2023-04-09T04:53:13.653Z,40.80
2023-04-09T04:55:50.809Z,47.00
2023-04-09T04:58:25.992Z,38.20
2023-04-09T05:01:00.560Z,37.60
2023-04-09T05:03:29.328Z,49.40
2023-04-09T05:06:03.570Z,46.20
2023-04-09T05:08:42.737Z,46.60
2023-04-09T05:11:12.820Z,43.60
2023-04-09T05:13:42.607Z,49.40
2023-04-09T05:16:18.962Z,49.80
2023-04-09T05:18:52.694Z,44.60
2023-04-09T05:21:20.978Z,51.60
2023-04-09T05:23:50.353Z,59.40
2023-04-09T05:26:18.420Z,50.00
2023-04-09T05:28:52.736Z,43.00
2023-04-09T05:31:24.883Z,38.60
2023-04-09T05:34:13.317Z,48.80
2023-04-09T05:36:49.125Z,55.40
2023-04-09T05:39:17.455Z,47.00
2023-04-09T05:41:46.654Z,50.80
2023-04-09T05:44:35.074Z,45.60
2023-04-09T05:47:10.051Z,51.20
2023-04-09T05:49:51.984Z,48.20
2023-04-09T05:52:21.677Z,52.40
2023-04-09T05:54:52.473Z,57.20
2023-04-09T05:57:26.649Z,51.00
2023-04-09T06:00:02.792Z,44.20
2023-04-09T06:02:34.457Z,51.00
2023-04-09T06:05:05.301Z,51.60
2023-04-09T06:07:33.503Z,43.40
2023-04-09T06:10:02.424Z,55.40
2023-04-09T06:12:30.824Z,54.40
2023-04-09T06:14:59.319Z,43.80
2023-04-09T06:17:30.082Z,44.60
2023-04-09T06:20:00.285Z,43.80
2023-04-09T06:22:28.413Z,51.60
2023-04-09T06:24:56.640Z,51.20
2023-04-09T06:27:24.812Z,38.20
2023-04-09T06:29:52.930Z,41.25
2023-04-09T06:32:21.027Z,44.00
2023-04-09T06:34:49.565Z,45.80
2023-04-09T06:37:19.292Z,43.20
2023-04-09T06:39:58.206Z,51.40
2023-04-09T06:42:29.489Z,43.40
2023-04-09T06:45:08.685Z,45.25
2023-04-09T06:47:37.555Z,40.60
2023-04-09T06:50:06.586Z,39.25
2023-04-09T06:52:36.483Z,42.75
2023-04-09T06:55:04.723Z,43.25
2023-04-09T06:57:33.038Z,39.50
2023-04-09T07:00:01.243Z,31.50
2023-04-09T07:02:29.921Z,39.25
2023-04-09T07:04:58.370Z,31.75
2023-04-09T07:07:26.685Z,34.75
2023-04-09T07:09:56.458Z,35.25
2023-04-09T07:12:28.240Z,31.00
2023-04-09T07:15:15.474Z,32.75
2023-04-09T07:17:44.142Z,34.00
2023-04-09T07:20:13.865Z,35.75
2023-04-09T07:22:43.058Z,39.25
2023-04-09T07:25:12.821Z,35.00
2023-04-09T07:27:41.412Z,38.75
2023-04-09T07:30:10.841Z,35.50
2023-04-09T07:32:39.297Z,35.25
2023-04-09T07:35:09.803Z,33.50
2023-04-09T07:37:38.131Z,35.75
2023-04-09T07:40:07.052Z,38.75
2023-04-09T07:42:38.180Z,37.00
2023-04-09T07:45:06.929Z,36.25
2023-04-09T07:47:35.211Z,34.50
2023-04-09T07:50:03.630Z,33.25
2023-04-09T07:52:31.933Z,35.75
2023-04-09T07:55:00.155Z,32.00
2023-04-09T07:57:28.370Z,27.00
2023-04-09T07:59:58.577Z,29.25
2023-04-09T08:02:27.340Z,33.25
2023-04-09T08:04:57.234Z,35.75
2023-04-09T08:07:25.675Z,26.75
2023-04-09T08:09:53.940Z,29.00
2023-04-09T08:12:23.212Z,29.50
2023-04-09T08:14:51.509Z,26.75
2023-04-09T08:17:21.179Z,29.25
2023-04-09T08:20:08.196Z,28.00
2023-04-09T08:22:37.254Z,27.50
2023-04-09T08:25:05.668Z,26.00
2023-04-09T08:27:34.889Z,27.25
2023-04-09T08:30:04.198Z,24.25
2023-04-09T08:32:34.080Z,20.75
2023-04-09T08:35:21.220Z,25.50
2023-04-09T08:37:49.916Z,27.25
2023-04-09T08:40:37.350Z,29.00
2023-04-09T08:43:07.024Z,24.00
2023-04-09T08:45:36.093Z,28.25
2023-04-09T08:48:06.576Z,27.25
2023-04-09T08:50:35.216Z,24.00
2023-04-09T08:53:04.401Z,22.25
2023-04-09T08:55:34.720Z,17.25
2023-04-09T08:58:05.734Z,27.50
2023-04-09T09:00:34.341Z,22.50
2023-04-09T09:03:03.771Z,25.25
2023-04-09T09:05:40.932Z,24.50
2023-04-09T09:08:12.839Z,20.75
2023-04-09T09:10:48.050Z,23.00
2023-04-09T09:13:21.525Z,24.25
2023-04-09T09:15:50.744Z,18.00
2023-04-09T09:18:19.422Z,30.25
2023-04-09T09:20:50.030Z,23.50
2023-04-09T09:23:18.243Z,21.25
2023-04-09T09:25:46.463Z,25.25
2023-04-09T09:28:32.935Z,23.25
2023-04-09T09:31:09.346Z,24.25
2023-04-09T09:33:37.773Z,24.50
2023-04-09T09:36:09.604Z,23.75
2023-04-09T09:38:53.466Z,23.50
2023-04-09T09:41:23.245Z,25.50
2023-04-09T09:43:52.546Z,24.50
2023-04-09T09:46:22.381Z,24.75
2023-04-09T09:48:51.601Z,27.25
2023-04-09T09:51:24.142Z,24.25
2023-04-09T09:53:53.350Z,21.00
2023-04-09T09:56:24.855Z,15.75
2023-04-09T09:58:56.369Z,24.00
2023-04-09T10:01:26.301Z,25.00
2023-04-09T10:03:55.144Z,25.00
2023-04-09T10:06:25.323Z,29.00
2023-04-09T10:08:54.333Z,28.00
2023-04-09T10:11:23.684Z,30.25
2023-04-09T10:13:56.105Z,28.25
2023-04-09T10:16:24.667Z,30.25
2023-04-09T10:18:53.220Z,24.50
2023-04-09T10:21:47.772Z,25.50
2023-04-09T10:24:17.210Z,22.00
2023-04-09T10:26:46.537Z,21.00
2023-04-09T10:29:15.729Z,22.50
2023-04-09T10:31:48.690Z,21.25
2023-04-09T10:34:17.742Z,22.00
2023-04-09T10:36:47.689Z,24.00
2023-04-09T10:39:16.395Z,25.50
2023-04-09T10:41:45.851Z,23.00
2023-04-09T10:44:24.545Z,24.25
2023-04-09T10:46:54.635Z,17.75
2023-04-09T10:49:23.637Z,24.75
2023-04-09T10:52:03.032Z,21.00
2023-04-09T10:54:44.052Z,26.25
2023-04-09T10:57:13.881Z,23.25
2023-04-09T11:00:00.760Z,14.25
2023-04-09T11:03:02.328Z,27.75
2023-04-09T11:05:33.808Z,24.75
2023-04-09T11:08:07.436Z,24.25
2023-04-09T11:10:36.121Z,23.50
2023-04-09T11:13:04.899Z,23.75
2023-04-09T11:15:33.784Z,24.00
2023-04-09T11:18:02.464Z,20.75
2023-04-09T11:20:31.540Z,21.25
2023-04-09T11:23:00.694Z,22.25
2023-04-09T11:25:31.598Z,17.75
2023-04-09T11:27:59.973Z,21.25
2023-04-09T11:30:29.208Z,20.25
2023-04-09T11:32:57.421Z,23.75
2023-04-09T11:35:28.489Z,25.75
2023-04-09T11:37:59.147Z,20.75
2023-04-09T11:40:29.325Z,22.00
2023-04-09T11:42:59.055Z,23.75
2023-04-09T11:45:29.525Z,31.25
2023-04-09T11:47:57.826Z,24.25
2023-04-09T11:50:27.579Z,26.25
2023-04-09T11:52:57.305Z,26.50
2023-04-09T11:55:26.579Z,21.25
2023-04-09T11:57:55.812Z,23.50
2023-04-09T12:00:26.321Z,22.25
2023-04-09T12:03:18.063Z,24.75
2023-04-09T12:05:50.505Z,24.25
2023-04-09T12:08:24.337Z,23.75
2023-04-09T12:10:54.123Z,23.50
2023-04-09T12:13:22.694Z,26.00
2023-04-09T12:15:52.773Z,24.00
2023-04-09T12:18:23.011Z,27.50
2023-04-09T12:20:51.857Z,22.25
2023-04-09T12:23:20.070Z,25.00
2023-04-09T12:25:48.321Z,24.25
2023-04-09T12:28:18.729Z,29.25
2023-04-09T12:30:49.298Z,29.50
2023-04-09T12:33:18.891Z,21.50
2023-04-09T12:35:47.338Z,30.25
2023-04-09T12:38:15.744Z,24.25
2023-04-09T12:40:44.152Z,27.50
2023-04-09T12:43:12.319Z,29.25
2023-04-09T12:45:40.647Z,28.50
2023-04-09T12:48:08.945Z,25.75
2023-04-09T12:50:38.555Z,26.00
2023-04-09T12:53:06.649Z,23.50
2023-04-09T12:55:35.121Z,24.25
2023-04-09T12:58:03.346Z,24.50
2023-04-09T13:00:31.706Z,25.50
2023-04-09T13:03:01.138Z,25.25
2023-04-09T13:05:31.615Z,24.00
2023-04-09T13:08:01.282Z,22.00
2023-04-09T13:10:29.623Z,25.50
2023-04-09T13:12:58.933Z,27.00
2023-04-09T13:15:27.535Z,25.75
2023-04-09T13:17:56.054Z,24.50
2023-04-09T13:20:24.340Z,23.00
2023-04-09T13:23:10.058Z,23.25
2023-04-09T13:25:39.586Z,22.75
2023-04-09T13:28:08.988Z,22.75
2023-04-09T13:30:37.355Z,24.50
2023-04-09T13:33:05.751Z,27.00
2023-04-09T13:35:33.963Z,24.25
2023-04-09T13:38:02.279Z,24.25
2023-04-09T13:40:30.604Z,25.00
2023-04-09T13:43:00.298Z,25.25
2023-04-09T13:45:28.443Z,24.75
2023-04-09T13:47:56.977Z,26.00
2023-04-09T13:50:25.243Z,30.00
2023-04-09T13:52:53.523Z,28.25
2023-04-09T13:55:21.744Z,29.75
2023-04-09T13:57:49.990Z,31.50
2023-04-09T14:00:20.132Z,27.25
2023-04-09T14:02:49.069Z,30.25
2023-04-09T14:05:17.849Z,26.50
2023-04-09T14:07:46.085Z,29.50
2023-04-09T14:10:33.019Z,22.00
2023-04-09T14:13:02.348Z,25.75
2023-04-09T14:15:32.074Z,25.25
2023-04-09T14:18:00.580Z,27.00
2023-04-09T14:20:29.217Z,26.00
2023-04-09T14:22:57.657Z,24.25
2023-04-09T14:25:26.100Z,25.75
2023-04-09T14:27:54.477Z,26.00
2023-04-09T14:30:24.737Z,24.75
2023-04-09T14:32:58.129Z,26.00
2023-04-09T14:35:27.308Z,26.50
2023-04-09T14:37:56.016Z,22.75
2023-04-09T14:40:24.411Z,24.25
2023-04-09T14:42:52.661Z,24.75
2023-04-09T14:45:21.266Z,26.00
2023-04-09T14:47:49.544Z,24.00
2023-04-09T14:50:19.648Z,23.25
2023-04-09T14:52:48.288Z,29.75
2023-04-09T14:55:16.941Z,26.00
2023-04-09T14:57:45.335Z,31.00
2023-04-09T15:00:13.972Z,78.00
2023-04-09T15:02:42.659Z,30.25
2023-04-09T15:05:11.501Z,27.25
2023-04-09T15:07:41.955Z,34.00
2023-04-09T15:10:10.480Z,30.50
2023-04-09T15:12:42.454Z,20.50
2023-04-09T15:15:11.338Z,29.50
2023-04-09T15:17:39.871Z,29.00
2023-04-09T15:20:08.762Z,33.00
2023-04-09T15:22:37.961Z,30.00
2023-04-09T15:25:08.030Z,30.00
2023-04-09T15:27:36.144Z,30.25
2023-04-09T15:30:04.450Z,33.75
2023-04-09T15:32:36.477Z,42.75
2023-04-09T15:35:05.090Z,35.50
2023-04-09T15:37:33.800Z,30.00
2023-04-09T15:40:01.972Z,31.25
2023-04-09T15:42:31.603Z,32.00
2023-04-09T15:44:59.747Z,38.75
2023-04-09T15:47:28.073Z,39.50
2023-04-09T15:49:57.452Z,37.25
2023-04-09T15:52:25.945Z,44.25
2023-04-09T15:54:54.373Z,46.50
2023-04-09T15:57:22.689Z,48.25
2023-04-09T15:59:52.303Z,41.50
2023-04-09T16:02:20.664Z,44.00
2023-04-09T16:04:49.036Z,40.40
2023-04-09T16:07:17.737Z,43.80
2023-04-09T16:09:46.294Z,45.40
2023-04-09T16:12:14.495Z,47.20
2023-04-09T16:14:44.721Z,47.50
2023-04-09T16:17:14.196Z,51.20
2023-04-09T16:19:43.847Z,48.40
2023-04-09T16:22:12.107Z,52.40
2023-04-09T16:24:40.646Z,50.60
2023-04-09T16:27:08.814Z,32.80
2023-04-09T16:29:36.936Z,45.00
2023-04-09T16:32:06.043Z,39.60
2023-04-09T16:34:35.873Z,62.60
2023-04-09T16:37:04.783Z,48.20
2023-04-09T16:39:32.939Z,48.40
2023-04-09T16:42:01.850Z,38.80
2023-04-09T16:44:30.441Z,50.00
2023-04-09T16:46:59.002Z,55.20
2023-04-09T16:49:27.046Z,69.40
2023-04-09T16:51:57.372Z,64.20
2023-04-09T16:54:25.783Z,72.60
2023-04-09T16:56:54.409Z,69.80
2023-04-09T16:59:22.557Z,70.80
2023-04-09T17:01:52.002Z,62.80
2023-04-09T17:04:20.788Z,64.20
2023-04-09T17:06:49.000Z,73.00
2023-04-09T17:09:18.873Z,67.60
2023-04-09T17:11:47.272Z,70.20
2023-04-09T17:14:15.592Z,67.60
2023-04-09T17:16:43.886Z,62.60
2023-04-09T17:19:14.144Z,56.00
2023-04-09T17:21:42.605Z,58.60
2023-04-09T17:24:11.304Z,66.20
2023-04-09T17:26:41.240Z,65.00
2023-04-09T17:29:09.620Z,64.60
2023-04-09T17:31:38.105Z,63.40
2023-04-09T17:34:06.470Z,69.60
2023-04-09T17:36:35.118Z,72.00
2023-04-09T17:39:03.535Z,74.80
2023-04-09T17:41:31.877Z,69.40
2023-04-09T17:44:01.428Z,67.60
2023-04-09T17:46:29.748Z,75.60
2023-04-09T17:48:58.261Z,75.40
2023-04-09T17:51:27.451Z,76.60
2023-04-09T17:53:56.164Z,79.80
2023-04-09T17:56:25.365Z,74.60
2023-04-09T17:58:54.078Z,71.00
2023-04-09T18:01:24.129Z,76.00
2023-04-09T18:03:52.698Z,71.00
2023-04-09T18:06:21.145Z,80.00
2023-04-09T18:08:50.570Z,77.60
2023-04-09T18:11:19.098Z,70.00
2023-04-09T18:13:47.535Z,75.40
2023-04-09T18:16:17.735Z,72.20
2023-04-09T18:18:47.374Z,64.80
2023-04-09T18:21:18.309Z,71.60
2023-04-09T18:23:46.697Z,70.20
2023-04-09T18:26:14.868Z,67.20
2023-04-09T18:28:43.179Z,62.60
2023-04-09T18:31:12.584Z,61.80
2023-04-09T18:33:40.954Z,67.20
2023-04-09T18:36:10.976Z,66.40
2023-04-09T18:38:39.637Z,72.00
2023-04-09T18:41:08.394Z,61.80
2023-04-09T18:43:36.581Z,73.40
2023-04-09T18:46:04.962Z,68.60
2023-04-09T18:48:36.533Z,70.20
2023-04-09T18:51:05.943Z,71.60
2023-04-09T18:53:35.718Z,66.40
2023-04-09T18:56:03.952Z,68.60
2023-04-09T18:58:33.889Z,64.40
2023-04-09T19:01:02.548Z,66.40
2023-04-09T19:03:31.123Z,61.20
2023-04-09T19:06:00.205Z,77.00
2023-04-09T19:08:32.400Z,68.80
2023-04-09T19:11:02.062Z,76.60
2023-04-09T19:13:30.181Z,69.20
2023-04-09T19:15:58.594Z,68.00
2023-04-09T19:18:26.953Z,70.40
2023-04-09T19:20:58.907Z,71.00
2023-04-09T19:23:27.274Z,61.20
2023-04-09T19:25:56.490Z,68.40
2023-04-09T19:28:26.843Z,67.00
2023-04-09T19:30:55.415Z,63.40
2023-04-09T19:33:25.536Z,70.20
2023-04-09T19:35:55.308Z,66.40
2023-04-09T19:38:23.585Z,72.40
2023-04-09T19:40:52.781Z,63.00
2023-04-09T19:43:22.831Z,68.60
2023-04-09T19:45:52.421Z,70.20
2023-04-09T19:48:20.640Z,59.00
2023-04-09T19:50:49.764Z,69.20
2023-04-09T19:53:20.716Z,65.40
2023-04-09T19:55:51.922Z,62.20
2023-04-09T19:58:20.211Z,61.80
2023-04-09T20:00:48.306Z,52.80
2023-04-09T20:03:18.774Z,65.20
2023-04-09T20:05:47.615Z,65.20
2023-04-09T20:08:16.159Z,63.80
2023-04-09T20:10:46.863Z,65.20
2023-04-09T20:13:14.973Z,62.40
2023-04-09T20:15:43.095Z,63.60
2023-04-09T20:18:11.303Z,58.80
2023-04-09T20:20:40.861Z,70.00
2023-04-09T20:23:08.890Z,63.20
2023-04-09T20:25:37.020Z,61.00
2023-04-09T20:28:05.175Z,63.80
2023-04-09T20:30:33.469Z,58.80
2023-04-09T20:33:01.599Z,63.40
2023-04-09T20:35:29.839Z,62.00
2023-04-09T20:37:59.341Z,60.40
2023-04-09T20:40:27.564Z,66.60
2023-04-09T20:42:55.747Z,62.00
2023-04-09T20:45:25.123Z,60.20
2023-04-09T20:47:53.716Z,60.40
2023-04-09T20:50:21.881Z,63.20
2023-04-09T20:52:49.963Z,61.60
2023-04-09T20:55:19.556Z,61.80
2023-04-09T20:57:47.682Z,61.80
2023-04-09T21:00:16.098Z,64.80
2023-04-09T21:02:44.562Z,61.60
2023-04-09T21:05:22.406Z,63.60
2023-04-09T21:07:51.895Z,66.00
2023-04-09T21:10:21.417Z,64.00
2023-04-09T21:12:49.693Z,63.40
2023-04-09T21:15:17.940Z,67.60
2023-04-09T21:17:48.786Z,64.00
2023-04-09T21:20:16.941Z,65.60
2023-04-09T21:22:45.064Z,65.40
2023-04-09T21:25:15.368Z,67.20
2023-04-09T21:27:45.166Z,59.80
2023-04-09T21:30:13.547Z,70.80
2023-04-09T21:32:41.723Z,62.00
2023-04-09T21:35:09.825Z,64.40
2023-04-09T21:37:37.882Z,69.60
2023-04-09T21:40:06.392Z,63.80
2023-04-09T21:42:34.519Z,71.00
2023-04-09T21:45:04.010Z,72.00
2023-04-09T21:47:32.218Z,64.80
2023-04-09T21:50:00.353Z,69.60
2023-04-09T21:52:30.504Z,68.20
2023-04-09T21:54:58.641Z,67.60
2023-04-09T21:57:26.738Z,69.20
2023-04-09T21:59:54.871Z,65.80
2023-04-09T22:02:24.517Z,66.00
2023-04-09T22:04:52.731Z,70.60
2023-04-09T22:07:20.857Z,67.60
2023-04-09T22:09:49.071Z,74.80
2023-04-09T22:12:17.075Z,72.00
2023-04-09T22:14:46.107Z,70.40
2023-04-09T22:17:14.188Z,73.20
2023-04-09T22:19:43.681Z,66.20
2023-04-09T22:22:15.210Z,71.40
2023-04-09T22:24:44.986Z,67.00
2023-04-09T22:27:13.222Z,73.00
2023-04-09T22:29:41.647Z,64.60
2023-04-09T22:32:12.688Z,68.20
2023-04-09T22:34:40.738Z,69.00
2023-04-09T22:37:13.114Z,67.00
2023-04-09T22:39:41.382Z,68.00
2023-04-09T22:42:10.616Z,63.00
2023-04-09T22:44:38.863Z,63.00
2023-04-09T22:47:07.260Z,69.00
2023-04-09T22:49:35.314Z,66.20
2023-04-09T22:52:03.382Z,59.80
2023-04-09T22:54:33.086Z,62.80
2023-04-09T22:57:01.393Z,64.00
2023-04-09T22:59:39.086Z,68.20
2023-04-09T23:02:08.039Z,68.40
2023-04-09T23:04:36.937Z,66.60
2023-04-09T23:07:05.209Z,60.20
2023-04-09T23:09:34.700Z,64.60
2023-04-09T23:12:02.867Z,67.00
2023-04-09T23:14:30.952Z,69.20
2023-04-09T23:16:59.188Z,65.40
2023-04-09T23:19:27.228Z,44.40
2023-04-09T23:21:55.322Z,62.00
2023-04-09T23:24:23.478Z,65.80
2023-04-09T23:26:52.904Z,65.40
2023-04-09T23:29:20.983Z,64.20
2023-04-09T23:31:49.196Z,63.40
2023-04-09T23:34:17.327Z,67.40
2023-04-09T23:36:45.497Z,67.40
2023-04-09T23:39:14.382Z,62.60
2023-04-09T23:41:42.480Z,72.40
2023-04-09T23:44:11.957Z,66.40
2023-04-09T23:46:40.215Z,66.40
2023-04-09T23:49:08.331Z,66.80
2023-04-09T23:51:37.454Z,67.60
2023-04-09T23:54:05.778Z,83.60
2023-04-09T23:56:33.858Z,86.40
2023-04-09T23:59:01.941Z,79.80
